sensor_id;sensor_type;location;lat;lon;timestamp;pressure;altitude;pressure_sealevel;temperature;humidity
74722;BME280;63470;49.826;6.740;2023-10-13T00:00:18;100105.02;;;16.39;63.45
74722;BME280;63470;49.826;6.740;2023-10-13T00:02:38;100105.17;;;16.36;63.48
74722;BME280;63470;49.826;6.740;2023-10-13T00:05:09;100101.95;;;16.31;63.58
74722;BME280;63470;49.826;6.740;2023-10-13T00:07:41;100100.94;;;16.28;63.66
74722;BME280;63470;49.826;6.740;2023-10-13T00:10:21;100106.35;;;16.22;63.72
74722;BME280;63470;49.826;6.740;2023-10-13T00:12:43;100106.86;;;16.17;63.78
74722;BME280;63470;49.826;6.740;2023-10-13T00:15:17;100106.62;;;16.13;63.79
74722;BME280;63470;49.826;6.740;2023-10-13T00:17:39;100104.44;;;16.08;63.88
74722;BME280;63470;49.826;6.740;2023-10-13T00:20:23;100100.55;;;16.00;64.00
74722;BME280;63470;49.826;6.740;2023-10-13T00:22:42;100099.62;;;15.90;64.09
74722;BME280;63470;49.826;6.740;2023-10-13T00:25:20;100098.43;;;15.81;64.24
74722;BME280;63470;49.826;6.740;2023-10-13T00:27:45;100100.52;;;15.76;64.30
74722;BME280;63470;49.826;6.740;2023-10-13T00:30:34;100102.23;;;15.75;64.34
74722;BME280;63470;49.826;6.740;2023-10-13T00:32:47;100094.61;;;15.74;64.34
74722;BME280;63470;49.826;6.740;2023-10-13T00:35:23;100095.83;;;15.73;64.29
74722;BME280;63470;49.826;6.740;2023-10-13T00:37:49;100082.68;;;15.69;64.28
74722;BME280;63470;49.826;6.740;2023-10-13T00:40:35;100089.84;;;15.64;64.26
74722;BME280;63470;49.826;6.740;2023-10-13T00:42:53;100090.25;;;15.60;64.30
74722;BME280;63470;49.826;6.740;2023-10-13T00:45:21;100090.14;;;15.57;64.31
74722;BME280;63470;49.826;6.740;2023-10-13T00:48:00;100093.03;;;15.55;64.35
74722;BME280;63470;49.826;6.740;2023-10-13T00:50:23;100094.62;;;15.57;64.32
74722;BME280;63470;49.826;6.740;2023-10-13T00:52:50;100093.05;;;15.61;64.25
74722;BME280;63470;49.826;6.740;2023-10-13T00:55:15;100083.95;;;15.66;64.17
74722;BME280;63470;49.826;6.740;2023-10-13T00:57:53;100081.30;;;15.72;64.06
74722;BME280;63470;49.826;6.740;2023-10-13T01:00:34;100073.86;;;15.77;63.96
74722;BME280;63470;49.826;6.740;2023-10-13T01:02:57;100082.95;;;15.81;63.92
74722;BME280;63470;49.826;6.740;2023-10-13T01:05:20;100075.06;;;15.82;63.94
74722;BME280;63470;49.826;6.740;2023-10-13T01:08:00;100063.09;;;15.86;63.98
74722;BME280;63470;49.826;6.740;2023-10-13T01:10:21;100069.27;;;15.90;63.95
74722;BME280;63470;49.826;6.740;2023-10-13T01:12:54;100064.77;;;15.92;63.93
74722;BME280;63470;49.826;6.740;2023-10-13T01:15:22;100057.48;;;15.95;63.92
74722;BME280;63470;49.826;6.740;2023-10-13T01:17:50;100057.28;;;15.98;63.94
74722;BME280;63470;49.826;6.740;2023-10-13T01:20:25;100049.77;;;15.96;63.99
74722;BME280;63470;49.826;6.740;2023-10-13T01:22:57;100047.50;;;15.95;64.02
74722;BME280;63470;49.826;6.740;2023-10-13T01:25:28;100042.52;;;15.95;64.06
74722;BME280;63470;49.826;6.740;2023-10-13T01:27:57;100039.43;;;15.99;64.03
74722;BME280;63470;49.826;6.740;2023-10-13T01:30:29;100044.59;;;16.07;63.93
74722;BME280;63470;49.826;6.740;2023-10-13T01:32:59;100036.45;;;16.16;63.81
74722;BME280;63470;49.826;6.740;2023-10-13T01:35:32;100029.58;;;16.24;63.70
74722;BME280;63470;49.826;6.740;2023-10-13T01:37:53;100023.77;;;16.29;63.65
74722;BME280;63470;49.826;6.740;2023-10-13T01:40:34;100017.61;;;16.33;63.66
74722;BME280;63470;49.826;6.740;2023-10-13T01:42:56;100016.41;;;16.38;63.68
74722;BME280;63470;49.826;6.740;2023-10-13T01:45:29;100016.76;;;16.44;63.64
74722;BME280;63470;49.826;6.740;2023-10-13T01:47:55;100012.34;;;16.49;63.59
74722;BME280;63470;49.826;6.740;2023-10-13T01:50:30;100010.75;;;16.53;63.57
74722;BME280;63470;49.826;6.740;2023-10-13T01:53:18;100005.64;;;16.56;63.55
74722;BME280;63470;49.826;6.740;2023-10-13T01:55:29;100001.41;;;16.59;63.58
74722;BME280;63470;49.826;6.740;2023-10-13T01:58:00;100007.72;;;16.63;63.58
74722;BME280;63470;49.826;6.740;2023-10-13T02:00:32;100010.03;;;16.69;63.56
74722;BME280;63470;49.826;6.740;2023-10-13T02:03:01;100009.73;;;16.78;63.52
74722;BME280;63470;49.826;6.740;2023-10-13T02:05:39;100012.70;;;16.86;63.41
74722;BME280;63470;49.826;6.740;2023-10-13T02:08:07;100013.25;;;16.92;63.34
74722;BME280;63470;49.826;6.740;2023-10-13T02:10:32;100006.31;;;16.97;63.31
74722;BME280;63470;49.826;6.740;2023-10-13T02:13:05;100012.84;;;16.99;63.34
74722;BME280;63470;49.826;6.740;2023-10-13T02:15:35;100009.16;;;17.03;63.39
74722;BME280;63470;49.826;6.740;2023-10-13T02:18:07;100008.20;;;17.07;63.35
74722;BME280;63470;49.826;6.740;2023-10-13T02:20:41;100005.27;;;17.12;63.30
74722;BME280;63470;49.826;6.740;2023-10-13T02:23:02;100001.72;;;17.14;63.24
74722;BME280;63470;49.826;6.740;2023-10-13T02:25:46;100000.41;;;17.16;63.18
74722;BME280;63470;49.826;6.740;2023-10-13T02:28:07;99995.80;;;17.16;63.20
74722;BME280;63470;49.826;6.740;2023-10-13T02:30:43;99989.95;;;17.16;63.22
74722;BME280;63470;49.826;6.740;2023-10-13T02:33:07;99981.62;;;17.15;63.21
74722;BME280;63470;49.826;6.740;2023-10-13T02:35:39;99975.58;;;17.10;63.25
74722;BME280;63470;49.826;6.740;2023-10-13T02:38:13;99982.55;;;17.07;63.34
74722;BME280;63470;49.826;6.740;2023-10-13T02:40:38;99974.20;;;17.04;63.44
74722;BME280;63470;49.826;6.740;2023-10-13T02:43:06;99968.44;;;17.02;63.51
74722;BME280;63470;49.826;6.740;2023-10-13T02:45:37;99966.30;;;17.01;63.56
74722;BME280;63470;49.826;6.740;2023-10-13T02:48:18;99963.61;;;17.01;63.62
74722;BME280;63470;49.826;6.740;2023-10-13T02:50:44;99954.77;;;17.01;63.66
74722;BME280;63470;49.826;6.740;2023-10-13T02:53:19;99954.80;;;17.01;63.65
74722;BME280;63470;49.826;6.740;2023-10-13T02:55:54;99955.28;;;17.00;63.65
74722;BME280;63470;49.826;6.740;2023-10-13T02:58:09;99957.53;;;16.99;63.61
74722;BME280;63470;49.826;6.740;2023-10-13T03:00:47;99959.45;;;16.98;63.60
74722;BME280;63470;49.826;6.740;2023-10-13T03:03:10;99957.82;;;16.97;63.51
74722;BME280;63470;49.826;6.740;2023-10-13T03:05:46;99955.52;;;16.93;63.54
74722;BME280;63470;49.826;6.740;2023-10-13T03:08:17;99952.52;;;16.86;63.56
74722;BME280;63470;49.826;6.740;2023-10-13T03:10:52;99945.98;;;16.76;63.65
74722;BME280;63470;49.826;6.740;2023-10-13T03:13:13;99944.73;;;16.67;63.75
74722;BME280;63470;49.826;6.740;2023-10-13T03:15:53;99938.98;;;16.58;63.93
74722;BME280;63470;49.826;6.740;2023-10-13T03:18:19;99930.29;;;16.53;64.00
74722;BME280;63470;49.826;6.740;2023-10-13T03:20:44;99917.34;;;16.48;64.02
74722;BME280;63470;49.826;6.740;2023-10-13T03:23:15;99912.08;;;16.42;64.07
74722;BME280;63470;49.826;6.740;2023-10-13T03:25:50;99915.09;;;16.35;64.20
74722;BME280;63470;49.826;6.740;2023-10-13T03:28:23;99915.11;;;16.28;64.27
74722;BME280;63470;49.826;6.740;2023-10-13T03:30:53;99915.67;;;16.26;64.29
74722;BME280;63470;49.826;6.740;2023-10-13T03:33:33;99914.22;;;16.24;64.29
74722;BME280;63470;49.826;6.740;2023-10-13T03:36:06;99911.96;;;16.24;64.27
74722;BME280;63470;49.826;6.740;2023-10-13T03:38:19;99914.30;;;16.26;64.25
74722;BME280;63470;49.826;6.740;2023-10-13T03:40:55;99904.79;;;16.30;64.21
74722;BME280;63470;49.826;6.740;2023-10-13T03:43:23;99898.98;;;16.36;64.13
74722;BME280;63470;49.826;6.740;2023-10-13T03:45:59;99899.31;;;16.43;64.04
74722;BME280;63470;49.826;6.740;2023-10-13T03:48:29;99898.79;;;16.47;63.96
74722;BME280;63470;49.826;6.740;2023-10-13T03:51:17;99897.47;;;16.48;63.90
74722;BME280;63470;49.826;6.740;2023-10-13T03:53:31;99883.95;;;16.48;63.88
74722;BME280;63470;49.826;6.740;2023-10-13T03:56:09;99881.71;;;16.46;63.91
74722;BME280;63470;49.826;6.740;2023-10-13T03:58:28;99879.88;;;16.42;63.94
74722;BME280;63470;49.826;6.740;2023-10-13T04:00:54;99877.43;;;16.37;64.05
74722;BME280;63470;49.826;6.740;2023-10-13T04:03:33;99876.09;;;16.34;64.16
74722;BME280;63470;49.826;6.740;2023-10-13T04:06:07;99867.56;;;16.32;64.19
74722;BME280;63470;49.826;6.740;2023-10-13T04:08:49;99859.30;;;16.29;64.24
74722;BME280;63470;49.826;6.740;2023-10-13T04:11:14;99856.53;;;16.33;64.22
74722;BME280;63470;49.826;6.740;2023-10-13T04:14:03;99854.20;;;16.40;64.14
74722;BME280;63470;49.826;6.740;2023-10-13T04:16:33;99850.02;;;16.49;63.99
74722;BME280;63470;49.826;6.740;2023-10-13T04:19:01;99854.98;;;16.56;63.86
74722;BME280;63470;49.826;6.740;2023-10-13T04:21:10;99855.88;;;16.59;63.87
74722;BME280;63470;49.826;6.740;2023-10-13T04:23:43;99849.60;;;16.58;63.92
74722;BME280;63470;49.826;6.740;2023-10-13T04:26:17;99844.97;;;16.55;63.97
74722;BME280;63470;49.826;6.740;2023-10-13T04:28:41;99845.53;;;16.54;63.98
74722;BME280;63470;49.826;6.740;2023-10-13T04:31:15;99846.90;;;16.55;64.00
74722;BME280;63470;49.826;6.740;2023-10-13T04:33:53;99839.64;;;16.55;63.98
74722;BME280;63470;49.826;6.740;2023-10-13T04:36:17;99836.12;;;16.56;63.94
74722;BME280;63470;49.826;6.740;2023-10-13T04:38:44;99836.83;;;16.53;63.91
74722;BME280;63470;49.826;6.740;2023-10-13T04:41:08;99838.55;;;16.48;63.95
74722;BME280;63470;49.826;6.740;2023-10-13T04:44:03;99842.97;;;16.44;64.06
74722;BME280;63470;49.826;6.740;2023-10-13T04:46:26;99838.71;;;16.38;64.12
74722;BME280;63470;49.826;6.740;2023-10-13T04:48:44;99832.66;;;16.34;64.20
74722;BME280;63470;49.826;6.740;2023-10-13T04:51:29;99825.08;;;16.31;64.27
74722;BME280;63470;49.826;6.740;2023-10-13T04:53:54;99826.90;;;16.28;64.29
74722;BME280;63470;49.826;6.740;2023-10-13T04:56:16;99825.67;;;16.25;64.35
74722;BME280;63470;49.826;6.740;2023-10-13T04:58:52;99827.34;;;16.24;64.39
74722;BME280;63470;49.826;6.740;2023-10-13T05:01:29;99826.70;;;16.23;64.39
74722;BME280;63470;49.826;6.740;2023-10-13T05:04:00;99829.02;;;16.21;64.37
74722;BME280;63470;49.826;6.740;2023-10-13T05:06:35;99824.86;;;16.20;64.46
74722;BME280;63470;49.826;6.740;2023-10-13T05:09:13;99821.36;;;16.18;64.52
74722;BME280;63470;49.826;6.740;2023-10-13T05:11:45;99820.16;;;16.15;64.51
74722;BME280;63470;49.826;6.740;2023-10-13T05:14:11;99816.19;;;16.12;64.51
74722;BME280;63470;49.826;6.740;2023-10-13T05:16:48;99813.08;;;16.10;64.48
74722;BME280;63470;49.826;6.740;2023-10-13T05:19:13;99815.61;;;16.07;64.51
74722;BME280;63470;49.826;6.740;2023-10-13T05:21:44;99810.06;;;16.04;64.52
74722;BME280;63470;49.826;6.740;2023-10-13T05:24:16;99810.96;;;16.05;64.55
74722;BME280;63470;49.826;6.740;2023-10-13T05:26:44;99812.35;;;16.09;64.44
74722;BME280;63470;49.826;6.740;2023-10-13T05:29:20;99810.20;;;16.12;64.37
74722;BME280;63470;49.826;6.740;2023-10-13T05:31:50;99807.55;;;16.18;64.29
74722;BME280;63470;49.826;6.740;2023-10-13T05:34:18;99799.11;;;16.24;64.16
74722;BME280;63470;49.826;6.740;2023-10-13T05:36:53;99799.92;;;16.30;64.11
74722;BME280;63470;49.826;6.740;2023-10-13T05:39:13;99801.06;;;16.34;64.08
74722;BME280;63470;49.826;6.740;2023-10-13T05:41:47;99800.41;;;16.37;64.07
74722;BME280;63470;49.826;6.740;2023-10-13T05:44:20;99799.45;;;16.38;64.08
74722;BME280;63470;49.826;6.740;2023-10-13T05:46:44;99799.56;;;16.37;64.17
74722;BME280;63470;49.826;6.740;2023-10-13T05:49:07;99802.00;;;16.33;64.25
74722;BME280;63470;49.826;6.740;2023-10-13T05:51:47;99803.28;;;16.27;64.36
74722;BME280;63470;49.826;6.740;2023-10-13T05:54:19;99800.17;;;16.18;64.46
74722;BME280;63470;49.826;6.740;2023-10-13T05:56:50;99800.84;;;16.11;64.55
74722;BME280;63470;49.826;6.740;2023-10-13T05:59:19;99802.47;;;16.07;64.59
74722;BME280;63470;49.826;6.740;2023-10-13T06:01:50;99803.24;;;15.99;64.64
74722;BME280;63470;49.826;6.740;2023-10-13T06:04:22;99806.50;;;15.93;64.69
74722;BME280;63470;49.826;6.740;2023-10-13T06:06:50;99806.30;;;15.90;64.70
74722;BME280;63470;49.826;6.740;2023-10-13T06:09:23;99810.12;;;15.86;64.72
74722;BME280;63470;49.826;6.740;2023-10-13T06:11:52;99810.03;;;15.83;64.79
74722;BME280;63470;49.826;6.740;2023-10-13T06:14:22;99810.86;;;15.83;64.82
74722;BME280;63470;49.826;6.740;2023-10-13T06:16:52;99814.03;;;15.86;64.81
74722;BME280;63470;49.826;6.740;2023-10-13T06:19:22;99818.73;;;15.89;64.75
74722;BME280;63470;49.826;6.740;2023-10-13T06:21:57;99826.98;;;15.96;64.70
74722;BME280;63470;49.826;6.740;2023-10-13T06:24:25;99822.37;;;16.08;64.58
74722;BME280;63470;49.826;6.740;2023-10-13T06:26:39;99825.80;;;16.22;64.45
74722;BME280;63470;49.826;6.740;2023-10-13T06:28:47;99824.30;;;16.37;64.29
74722;BME280;63470;49.826;6.740;2023-10-13T06:31:26;99825.92;;;16.53;64.12
74722;BME280;63470;49.826;6.740;2023-10-13T06:33:48;99820.58;;;16.64;64.00
74722;BME280;63470;49.826;6.740;2023-10-13T06:36:18;99828.45;;;16.73;63.89
74722;BME280;63470;49.826;6.740;2023-10-13T06:39:06;99832.44;;;16.84;63.82
74722;BME280;63470;49.826;6.740;2023-10-13T06:41:33;99830.44;;;16.96;63.73
74722;BME280;63470;49.826;6.740;2023-10-13T06:44:04;99828.53;;;17.08;63.60
74722;BME280;63470;49.826;6.740;2023-10-13T06:46:28;99822.49;;;17.19;63.54
74722;BME280;63470;49.826;6.740;2023-10-13T06:48:54;99824.67;;;17.30;63.40
74722;BME280;63470;49.826;6.740;2023-10-13T06:51:23;99826.56;;;17.42;63.32
74722;BME280;63470;49.826;6.740;2023-10-13T06:53:57;99821.34;;;17.51;63.26
74722;BME280;63470;49.826;6.740;2023-10-13T06:56:33;99822.81;;;17.59;63.23
74722;BME280;63470;49.826;6.740;2023-10-13T06:58:53;99823.41;;;17.65;63.21
74722;BME280;63470;49.826;6.740;2023-10-13T07:01:25;99821.97;;;17.72;63.13
74722;BME280;63470;49.826;6.740;2023-10-13T07:03:54;99824.04;;;17.80;63.12
74722;BME280;63470;49.826;6.740;2023-10-13T07:06:28;99821.30;;;17.91;63.06
74722;BME280;63470;49.826;6.740;2023-10-13T07:08:57;99822.72;;;18.02;62.99
74722;BME280;63470;49.826;6.740;2023-10-13T07:11:35;99821.05;;;18.13;62.88
74722;BME280;63470;49.826;6.740;2023-10-13T07:14:00;99821.98;;;18.24;62.79
74722;BME280;63470;49.826;6.740;2023-10-13T07:16:44;99819.22;;;18.30;62.75
74722;BME280;63470;49.826;6.740;2023-10-13T07:19:07;99818.64;;;18.39;62.70
74722;BME280;63470;49.826;6.740;2023-10-13T07:21:33;99821.33;;;18.50;62.65
74722;BME280;63470;49.826;6.740;2023-10-13T07:24:14;99820.77;;;18.67;62.54
74722;BME280;63470;49.826;6.740;2023-10-13T07:26:31;99814.27;;;18.86;62.41
74722;BME280;63470;49.826;6.740;2023-10-13T07:29:01;99803.44;;;19.10;62.21
74722;BME280;63470;49.826;6.740;2023-10-13T07:31:31;99797.73;;;19.20;62.11
74722;BME280;63470;49.826;6.740;2023-10-13T07:34:12;99807.89;;;19.53;61.63
74722;BME280;63470;49.826;6.740;2023-10-13T07:36:43;99812.61;;;19.75;61.46
74722;BME280;63470;49.826;6.740;2023-10-13T07:39:31;99809.95;;;19.84;61.33
74722;BME280;63470;49.826;6.740;2023-10-13T07:41:34;99807.59;;;19.87;61.42
74722;BME280;63470;49.826;6.740;2023-10-13T07:44:07;99779.10;;;19.91;61.46
74722;BME280;63470;49.826;6.740;2023-10-13T07:46:36;99773.41;;;20.21;61.21
74722;BME280;63470;49.826;6.740;2023-10-13T07:49:11;99790.88;;;20.61;61.23
74722;BME280;63470;49.826;6.740;2023-10-13T07:51:46;99787.17;;;20.78;61.35
74722;BME280;63470;49.826;6.740;2023-10-13T07:54:13;99776.28;;;20.75;61.40
74722;BME280;63470;49.826;6.740;2023-10-13T07:56:43;99775.73;;;20.73;61.27
74722;BME280;63470;49.826;6.740;2023-10-13T07:59:09;99782.16;;;20.57;61.38
74722;BME280;63470;49.826;6.740;2023-10-13T08:01:36;99766.84;;;20.56;61.46
74722;BME280;63470;49.826;6.740;2023-10-13T08:04:16;99756.32;;;20.75;61.44
74722;BME280;63470;49.826;6.740;2023-10-13T08:06:38;99749.56;;;20.97;61.34
74722;BME280;63470;49.826;6.740;2023-10-13T08:09:30;99746.14;;;21.18;61.29
74722;BME280;63470;49.826;6.740;2023-10-13T08:11:38;99740.44;;;21.45;61.19
74722;BME280;63470;49.826;6.740;2023-10-13T08:14:29;99743.05;;;21.78;61.01
74722;BME280;63470;49.826;6.740;2023-10-13T08:17:08;99741.05;;;22.07;60.88
74722;BME280;63470;49.826;6.740;2023-10-13T08:19:15;99747.11;;;22.16;60.98
74722;BME280;63470;49.826;6.740;2023-10-13T08:21:46;99753.75;;;22.18;61.12
74722;BME280;63470;49.826;6.740;2023-10-13T08:24:16;99759.83;;;22.06;61.35
74722;BME280;63470;49.826;6.740;2023-10-13T08:27:21;99754.30;;;21.88;61.65
74722;BME280;63470;49.826;6.740;2023-10-13T08:29:35;99761.61;;;21.70;61.93
74722;BME280;63470;49.826;6.740;2023-10-13T08:31:46;99758.74;;;21.49;62.24
74722;BME280;63470;49.826;6.740;2023-10-13T08:34:21;99753.65;;;21.32;62.50
74722;BME280;63470;49.826;6.740;2023-10-13T08:36:47;99754.03;;;21.18;62.62
74722;BME280;63470;49.826;6.740;2023-10-13T08:39:53;99756.09;;;21.15;62.81
74722;BME280;63470;49.826;6.740;2023-10-13T08:42:10;99758.83;;;21.63;62.39
74722;BME280;63470;49.826;6.740;2023-10-13T08:44:25;99751.38;;;22.25;61.59
74722;BME280;63470;49.826;6.740;2023-10-13T08:47:10;99757.95;;;22.48;61.33
74722;BME280;63470;49.826;6.740;2023-10-13T08:49:19;99760.34;;;22.42;61.31
74722;BME280;63470;49.826;6.740;2023-10-13T08:51:50;99769.20;;;22.22;61.59
74722;BME280;63470;49.826;6.740;2023-10-13T08:54:40;99768.55;;;22.00;61.92
74722;BME280;63470;49.826;6.740;2023-10-13T08:56:57;99777.52;;;21.73;62.32
74722;BME280;63470;49.826;6.740;2023-10-13T08:59:42;99782.40;;;21.44;62.72
74722;BME280;63470;49.826;6.740;2023-10-13T09:01:52;99778.68;;;21.18;62.98
74722;BME280;63470;49.826;6.740;2023-10-13T09:04:24;99773.42;;;20.96;63.18
74722;BME280;63470;49.826;6.740;2023-10-13T09:07:09;99778.11;;;20.78;63.39
74722;BME280;63470;49.826;6.740;2023-10-13T09:09:49;99783.75;;;20.64;63.46
74722;BME280;63470;49.826;6.740;2023-10-13T09:11:59;99784.25;;;20.51;63.52
74722;BME280;63470;49.826;6.740;2023-10-13T09:14:39;99786.30;;;20.42;63.62
74722;BME280;63470;49.826;6.740;2023-10-13T09:17:01;99778.92;;;20.37;63.64
74722;BME280;63470;49.826;6.740;2023-10-13T09:19:22;99776.53;;;20.37;63.59
74722;BME280;63470;49.826;6.740;2023-10-13T09:21:55;99768.94;;;20.41;63.49
74722;BME280;63470;49.826;6.740;2023-10-13T09:24:35;99764.39;;;20.54;63.36
74722;BME280;63470;49.826;6.740;2023-10-13T09:26:58;99757.62;;;20.75;63.14
74722;BME280;63470;49.826;6.740;2023-10-13T09:29:23;99759.02;;;20.94;62.91
74722;BME280;63470;49.826;6.740;2023-10-13T09:32:01;99761.29;;;21.10;62.78
74722;BME280;63470;49.826;6.740;2023-10-13T09:34:31;99756.68;;;21.28;62.58
74722;BME280;63470;49.826;6.740;2023-10-13T09:36:59;99754.21;;;21.64;62.14
74722;BME280;63470;49.826;6.740;2023-10-13T09:39:53;99756.64;;;21.70;62.22
74722;BME280;63470;49.826;6.740;2023-10-13T09:42:02;99749.06;;;21.73;62.23
74722;BME280;63470;49.826;6.740;2023-10-13T09:44:32;99742.03;;;21.67;62.45
74722;BME280;63470;49.826;6.740;2023-10-13T09:47:11;99733.80;;;21.62;62.65
74722;BME280;63470;49.826;6.740;2023-10-13T09:49:43;99737.43;;;21.58;62.77
74722;BME280;63470;49.826;6.740;2023-10-13T09:52:07;99732.66;;;21.53;62.79
74722;BME280;63470;49.826;6.740;2023-10-13T09:54:34;99725.77;;;21.60;62.76
74722;BME280;63470;49.826;6.740;2023-10-13T09:57:08;99722.92;;;21.84;62.55
74722;BME280;63470;49.826;6.740;2023-10-13T09:59:46;99725.14;;;22.24;62.17
74722;BME280;63470;49.826;6.740;2023-10-13T10:02:08;99716.61;;;22.52;62.22
74722;BME280;63470;49.826;6.740;2023-10-13T10:04:52;99719.34;;;22.48;62.26
74722;BME280;63470;49.826;6.740;2023-10-13T10:07:02;99707.43;;;22.52;62.28
74722;BME280;63470;49.826;6.740;2023-10-13T10:09:38;99716.44;;;22.55;62.40
74722;BME280;63470;49.826;6.740;2023-10-13T10:17:08;99721.39;;;23.60;61.38
74722;BME280;63470;49.826;6.740;2023-10-13T10:19:50;99707.26;;;24.99;60.72
74722;BME280;63470;49.826;6.740;2023-10-13T10:22:25;99709.05;;;26.59;59.63
74722;BME280;63470;49.826;6.740;2023-10-13T10:24:39;99715.08;;;26.58;59.56
74722;BME280;63470;49.826;6.740;2023-10-13T10:27:07;99708.81;;;26.55;59.68
74722;BME280;63470;49.826;6.740;2023-10-13T10:29:37;99703.31;;;26.56;59.98
74722;BME280;63470;49.826;6.740;2023-10-13T10:32:14;99693.97;;;27.34;59.50
74722;BME280;63470;49.826;6.740;2023-10-13T10:34:38;99688.98;;;28.39;58.83
74722;BME280;63470;49.826;6.740;2023-10-13T10:37:12;99683.11;;;28.70;58.50
74722;BME280;63470;49.826;6.740;2023-10-13T10:39:51;99669.95;;;29.39;57.89
74722;BME280;63470;49.826;6.740;2023-10-13T10:42:22;99679.84;;;29.48;58.15
74722;BME280;63470;49.826;6.740;2023-10-13T10:44:40;99683.25;;;29.50;58.23
74722;BME280;63470;49.826;6.740;2023-10-13T10:47:11;99685.47;;;30.00;57.96
74722;BME280;63470;49.826;6.740;2023-10-13T10:49:42;99675.76;;;29.68;58.47
74722;BME280;63470;49.826;6.740;2023-10-13T10:52:19;99675.73;;;28.59;60.02
74722;BME280;63470;49.826;6.740;2023-10-13T10:54:45;99665.55;;;28.17;60.60
74722;BME280;63470;49.826;6.740;2023-10-13T10:57:17;99661.50;;;28.83;59.96
74722;BME280;63470;49.826;6.740;2023-10-13T10:59:43;99665.08;;;29.53;59.22
74722;BME280;63470;49.826;6.740;2023-10-13T11:02:31;99662.82;;;30.08;58.48
74722;BME280;63470;49.826;6.740;2023-10-13T11:04:56;99659.24;;;30.81;57.62
74722;BME280;63470;49.826;6.740;2023-10-13T11:07:21;99659.69;;;31.27;57.14
74722;BME280;63470;49.826;6.740;2023-10-13T11:09:48;99658.02;;;31.58;56.93
74722;BME280;63470;49.826;6.740;2023-10-13T11:12:16;99652.44;;;31.95;56.61
74722;BME280;63470;49.826;6.740;2023-10-13T11:15:01;99646.74;;;31.32;57.68
74722;BME280;63470;49.826;6.740;2023-10-13T11:17:25;99655.45;;;29.95;59.48
74722;BME280;63470;49.826;6.740;2023-10-13T11:19:46;99651.95;;;28.84;61.02
74722;BME280;63470;49.826;6.740;2023-10-13T11:22:49;99636.20;;;27.76;62.44
74722;BME280;63470;49.826;6.740;2023-10-13T11:24:48;99639.51;;;26.88;63.31
74722;BME280;63470;49.826;6.740;2023-10-13T11:27:21;99652.53;;;26.51;63.67
74722;BME280;63470;49.826;6.740;2023-10-13T11:29:53;99653.18;;;26.17;63.81
74722;BME280;63470;49.826;6.740;2023-10-13T11:32:21;99644.92;;;26.47;63.26
74722;BME280;63470;49.826;6.740;2023-10-13T11:34:55;99633.88;;;26.47;63.03
74722;BME280;63470;49.826;6.740;2023-10-13T11:37:38;99632.54;;;26.18;63.11
74722;BME280;63470;49.826;6.740;2023-10-13T11:39:52;99628.92;;;25.96;63.12
74722;BME280;63470;49.826;6.740;2023-10-13T11:42:21;99632.86;;;25.54;63.41
74722;BME280;63470;49.826;6.740;2023-10-13T11:45:01;99630.20;;;25.20;63.59
74722;BME280;63470;49.826;6.740;2023-10-13T11:48:01;99629.74;;;25.04;63.57
74722;BME280;63470;49.826;6.740;2023-10-13T11:49:58;99632.77;;;25.09;63.28
74722;BME280;63470;49.826;6.740;2023-10-13T11:52:33;99643.05;;;25.03;63.14
74722;BME280;63470;49.826;6.740;2023-10-13T11:54:53;99637.56;;;24.95;63.07
74722;BME280;63470;49.826;6.740;2023-10-13T11:57:25;99626.23;;;24.83;63.12
74722;BME280;63470;49.826;6.740;2023-10-13T11:59:57;99627.64;;;24.62;63.29
74722;BME280;63470;49.826;6.740;2023-10-13T12:02:51;99616.88;;;24.44;63.36
74722;BME280;63470;49.826;6.740;2023-10-13T12:05:00;99609.42;;;24.53;63.07
74722;BME280;63470;49.826;6.740;2023-10-13T12:07:46;99612.47;;;24.73;62.80
74722;BME280;63470;49.826;6.740;2023-10-13T12:10:06;99603.48;;;24.81;62.62
74722;BME280;63470;49.826;6.740;2023-10-13T12:12:28;99609.98;;;24.86;62.47
74722;BME280;63470;49.826;6.740;2023-10-13T12:14:58;99605.43;;;24.85;62.38
74722;BME280;63470;49.826;6.740;2023-10-13T12:17:40;99596.10;;;24.72;62.44
74722;BME280;63470;49.826;6.740;2023-10-13T12:20:00;99591.77;;;24.52;62.62
74722;BME280;63470;49.826;6.740;2023-10-13T12:22:40;99592.25;;;24.36;62.76
74722;BME280;63470;49.826;6.740;2023-10-13T12:25:05;99584.52;;;24.21;62.82
74722;BME280;63470;49.826;6.740;2023-10-13T12:27:49;99573.41;;;24.03;63.06
74722;BME280;63470;49.826;6.740;2023-10-13T12:30:09;99572.45;;;23.98;63.01
74722;BME280;63470;49.826;6.740;2023-10-13T12:32:35;99578.91;;;24.05;62.78
74722;BME280;63470;49.826;6.740;2023-10-13T12:35:14;99571.90;;;24.26;62.54
74722;BME280;63470;49.826;6.740;2023-10-13T12:37:52;99566.73;;;24.42;62.22
74722;BME280;63470;49.826;6.740;2023-10-13T12:40:39;99563.81;;;25.13;61.34
74722;BME280;63470;49.826;6.740;2023-10-13T12:43:09;99569.16;;;25.29;61.12
74722;BME280;63470;49.826;6.740;2023-10-13T12:45:40;99560.41;;;25.38;60.98
74722;BME280;63470;49.826;6.740;2023-10-13T12:48:10;99556.31;;;25.90;60.20
74722;BME280;63470;49.826;6.740;2023-10-13T12:50:13;99543.40;;;26.77;58.72
74722;BME280;63470;49.826;6.740;2023-10-13T12:52:34;99533.31;;;27.94;56.51
74722;BME280;63470;49.826;6.740;2023-10-13T12:55:07;99530.44;;;28.78;54.71
74722;BME280;63470;49.826;6.740;2023-10-13T12:57:35;99522.62;;;29.34;53.37
74722;BME280;63470;49.826;6.740;2023-10-13T13:00:16;99518.91;;;29.65;52.77
74722;BME280;63470;49.826;6.740;2023-10-13T13:02:39;99515.26;;;29.63;52.74
74722;BME280;63470;49.826;6.740;2023-10-13T13:05:12;99513.23;;;29.01;53.86
74722;BME280;63470;49.826;6.740;2023-10-13T13:07:53;99509.11;;;28.27;55.27
74722;BME280;63470;49.826;6.740;2023-10-13T13:10:10;99506.84;;;27.57;56.61
74722;BME280;63470;49.826;6.740;2023-10-13T13:12:40;99500.73;;;27.24;57.35
74722;BME280;63470;49.826;6.740;2023-10-13T13:15:10;99486.30;;;27.03;57.78
74722;BME280;63470;49.826;6.740;2023-10-13T13:17:39;99479.61;;;26.84;58.19